sensor_id;sensor_type;location;lat;lon;timestamp;P1;durP1;ratioP1;P2;durP2;ratioP2
17201;SDS011;8717;53.588;10.176;2023-09-07T00:00:10;3.83;;;3.50;;
17201;SDS011;8717;53.588;10.176;2023-09-07T00:02:38;4.53;;;4.13;;
17201;SDS011;8717;53.588;10.176;2023-09-07T00:05:06;7.80;;;4.18;;
17201;SDS011;8717;53.588;10.176;2023-09-07T00:07:33;6.05;;;3.75;;
17201;SDS011;8717;53.588;10.176;2023-09-07T00:10:00;3.88;;;3.58;;
17201;SDS011;8717;53.588;10.176;2023-09-07T00:12:27;5.25;;;3.88;;
17201;SDS011;8717;53.588;10.176;2023-09-07T00:14:54;4.32;;;3.92;;
17201;SDS011;8717;53.588;10.176;2023-09-07T00:17:21;5.18;;;4.00;;
17201;SDS011;8717;53.588;10.176;2023-09-07T00:19:48;4.57;;;3.78;;
17201;SDS011;8717;53.588;10.176;2023-09-07T00:22:17;5.88;;;3.50;;
17201;SDS011;8717;53.588;10.176;2023-09-07T00:24:44;5.25;;;3.92;;
17201;SDS011;8717;53.588;10.176;2023-09-07T00:27:12;4.47;;;3.80;;
17201;SDS011;8717;53.588;10.176;2023-09-07T00:29:39;4.70;;;4.13;;
17201;SDS011;8717;53.588;10.176;2023-09-07T00:32:06;5.65;;;4.55;;
17201;SDS011;8717;53.588;10.176;2023-09-07T00:34:34;4.85;;;3.95;;
17201;SDS011;8717;53.588;10.176;2023-09-07T00:37:01;4.28;;;3.88;;
17201;SDS011;8717;53.588;10.176;2023-09-07T00:39:29;4.97;;;3.85;;
17201;SDS011;8717;53.588;10.176;2023-09-07T00:41:56;5.35;;;3.78;;
17201;SDS011;8717;53.588;10.176;2023-09-07T00:44:23;4.97;;;4.05;;
17201;SDS011;8717;53.588;10.176;2023-09-07T00:46:50;6.80;;;4.18;;
17201;SDS011;8717;53.588;10.176;2023-09-07T00:49:17;4.63;;;4.07;;
17201;SDS011;8717;53.588;10.176;2023-09-07T00:51:44;5.22;;;4.20;;
17201;SDS011;8717;53.588;10.176;2023-09-07T00:54:11;7.55;;;4.10;;
17201;SDS011;8717;53.588;10.176;2023-09-07T00:56:39;4.82;;;3.90;;
17201;SDS011;8717;53.588;10.176;2023-09-07T00:59:07;4.32;;;3.92;;
17201;SDS011;8717;53.588;10.176;2023-09-07T01:01:35;4.45;;;4.05;;
17201;SDS011;8717;53.588;10.176;2023-09-07T01:04:02;4.90;;;4.03;;
17201;SDS011;8717;53.588;10.176;2023-09-07T01:06:30;4.78;;;4.25;;
17201;SDS011;8717;53.588;10.176;2023-09-07T01:09:03;5.10;;;4.07;;
17201;SDS011;8717;53.588;10.176;2023-09-07T01:11:36;5.60;;;4.50;;
17201;SDS011;8717;53.588;10.176;2023-09-07T01:14:05;4.40;;;4.00;;
17201;SDS011;8717;53.588;10.176;2023-09-07T01:16:32;4.45;;;4.05;;
17201;SDS011;8717;53.588;10.176;2023-09-07T01:19:01;4.55;;;4.10;;
17201;SDS011;8717;53.588;10.176;2023-09-07T01:21:33;5.00;;;4.50;;
17201;SDS011;8717;53.588;10.176;2023-09-07T01:24:01;4.90;;;4.28;;
17201;SDS011;8717;53.588;10.176;2023-09-07T01:26:30;4.45;;;4.05;;
17201;SDS011;8717;53.588;10.176;2023-09-07T01:28:57;7.05;;;4.75;;
17201;SDS011;8717;53.588;10.176;2023-09-07T01:31:24;7.97;;;4.72;;
17201;SDS011;8717;53.588;10.176;2023-09-07T01:33:50;4.85;;;4.45;;
17201;SDS011;8717;53.588;10.176;2023-09-07T01:36:17;6.13;;;4.25;;
17201;SDS011;8717;53.588;10.176;2023-09-07T01:38:45;5.07;;;4.57;;
17201;SDS011;8717;53.588;10.176;2023-09-07T01:41:12;6.40;;;4.65;;
17201;SDS011;8717;53.588;10.176;2023-09-07T01:43:38;6.47;;;4.80;;
17201;SDS011;8717;53.588;10.176;2023-09-07T01:46:05;5.07;;;3.92;;
17201;SDS011;8717;53.588;10.176;2023-09-07T01:48:32;5.80;;;4.78;;
17201;SDS011;8717;53.588;10.176;2023-09-07T01:50:59;4.68;;;4.28;;
17201;SDS011;8717;53.588;10.176;2023-09-07T01:53:26;5.22;;;4.72;;
17201;SDS011;8717;53.588;10.176;2023-09-07T01:55:54;5.03;;;4.50;;
17201;SDS011;8717;53.588;10.176;2023-09-07T01:58:21;6.93;;;4.55;;
17201;SDS011;8717;53.588;10.176;2023-09-07T02:00:49;4.95;;;4.35;;
17201;SDS011;8717;53.588;10.176;2023-09-07T02:03:15;5.22;;;4.72;;
17201;SDS011;8717;53.588;10.176;2023-09-07T02:05:43;7.00;;;4.85;;
17201;SDS011;8717;53.588;10.176;2023-09-07T02:08:11;7.07;;;4.70;;
17201;SDS011;8717;53.588;10.176;2023-09-07T02:10:38;5.85;;;4.78;;
17201;SDS011;8717;53.588;10.176;2023-09-07T02:13:06;6.28;;;4.82;;
17201;SDS011;8717;53.588;10.176;2023-09-07T02:15:32;6.90;;;5.03;;
17201;SDS011;8717;53.588;10.176;2023-09-07T02:18:00;5.15;;;4.65;;
17201;SDS011;8717;53.588;10.176;2023-09-07T02:20:28;5.68;;;4.85;;
17201;SDS011;8717;53.588;10.176;2023-09-07T02:22:55;7.47;;;5.20;;
17201;SDS011;8717;53.588;10.176;2023-09-07T02:25:22;5.57;;;4.40;;
17201;SDS011;8717;53.588;10.176;2023-09-07T02:27:49;6.07;;;5.32;;
17201;SDS011;8717;53.588;10.176;2023-09-07T02:30:17;5.00;;;4.50;;
17201;SDS011;8717;53.588;10.176;2023-09-07T02:32:44;6.07;;;5.47;;
17201;SDS011;8717;53.588;10.176;2023-09-07T02:35:11;6.07;;;5.47;;
17201;SDS011;8717;53.588;10.176;2023-09-07T02:37:39;5.63;;;5.10;;
17201;SDS011;8717;53.588;10.176;2023-09-07T02:40:06;5.50;;;4.68;;
17201;SDS011;8717;53.588;10.176;2023-09-07T02:42:35;5.72;;;5.18;;
17201;SDS011;8717;53.588;10.176;2023-09-07T02:45:02;5.25;;;4.75;;
17201;SDS011;8717;53.588;10.176;2023-09-07T02:47:30;5.07;;;4.68;;
17201;SDS011;8717;53.588;10.176;2023-09-07T02:49:57;5.57;;;4.72;;
17201;SDS011;8717;53.588;10.176;2023-09-07T02:52:24;5.90;;;5.13;;
17201;SDS011;8717;53.588;10.176;2023-09-07T02:54:51;6.53;;;4.43;;
17201;SDS011;8717;53.588;10.176;2023-09-07T02:57:18;5.78;;;5.18;;
17201;SDS011;8717;53.588;10.176;2023-09-07T02:59:46;6.60;;;5.18;;
17201;SDS011;8717;53.588;10.176;2023-09-07T03:02:13;7.77;;;4.97;;
17201;SDS011;8717;53.588;10.176;2023-09-07T03:04:41;5.82;;;5.10;;
17201;SDS011;8717;53.588;10.176;2023-09-07T03:07:08;5.82;;;5.32;;
17201;SDS011;8717;53.588;10.176;2023-09-07T03:09:36;6.20;;;5.60;;
17201;SDS011;8717;53.588;10.176;2023-09-07T03:12:03;6.78;;;5.80;;
17201;SDS011;8717;53.588;10.176;2023-09-07T03:14:31;7.78;;;5.65;;
17201;SDS011;8717;53.588;10.176;2023-09-07T03:17:00;7.18;;;5.65;;
17201;SDS011;8717;53.588;10.176;2023-09-07T03:19:28;5.60;;;5.10;;
17201;SDS011;8717;53.588;10.176;2023-09-07T03:21:57;8.45;;;6.22;;
17201;SDS011;8717;53.588;10.176;2023-09-07T03:24:25;6.78;;;5.53;;
17201;SDS011;8717;53.588;10.176;2023-09-07T03:26:53;6.43;;;5.82;;
17201;SDS011;8717;53.588;10.176;2023-09-07T03:29:20;6.37;;;5.63;;
17201;SDS011;8717;53.588;10.176;2023-09-07T03:31:48;6.97;;;5.70;;
17201;SDS011;8717;53.588;10.176;2023-09-07T03:34:15;6.78;;;5.93;;
17201;SDS011;8717;53.588;10.176;2023-09-07T03:36:42;7.40;;;6.22;;
17201;SDS011;8717;53.588;10.176;2023-09-07T03:39:11;6.45;;;5.45;;
17201;SDS011;8717;53.588;10.176;2023-09-07T03:41:38;8.07;;;5.82;;
17201;SDS011;8717;53.588;10.176;2023-09-07T03:44:05;7.57;;;5.73;;
17201;SDS011;8717;53.588;10.176;2023-09-07T03:46:32;6.93;;;5.90;;
17201;SDS011;8717;53.588;10.176;2023-09-07T03:48:59;7.13;;;5.90;;
17201;SDS011;8717;53.588;10.176;2023-09-07T03:51:26;7.35;;;6.63;;
17201;SDS011;8717;53.588;10.176;2023-09-07T03:53:53;6.72;;;6.10;;
17201;SDS011;8717;53.588;10.176;2023-09-07T03:56:22;6.67;;;6.07;;
17201;SDS011;8717;53.588;10.176;2023-09-07T03:58:49;7.70;;;6.78;;
17201;SDS011;8717;53.588;10.176;2023-09-07T04:01:15;7.97;;;6.87;;
17201;SDS011;8717;53.588;10.176;2023-09-07T04:03:42;7.18;;;6.45;;
17201;SDS011;8717;53.588;10.176;2023-09-07T04:06:10;8.50;;;6.53;;
17201;SDS011;8717;53.588;10.176;2023-09-07T04:08:37;7.93;;;6.43;;
17201;SDS011;8717;53.588;10.176;2023-09-07T04:11:05;7.23;;;6.53;;
17201;SDS011;8717;53.588;10.176;2023-09-07T04:13:33;6.68;;;6.05;;
17201;SDS011;8717;53.588;10.176;2023-09-07T04:16:01;6.50;;;5.90;;
17201;SDS011;8717;53.588;10.176;2023-09-07T04:18:28;7.00;;;6.00;;
17201;SDS011;8717;53.588;10.176;2023-09-07T04:21:03;7.73;;;6.97;;
17201;SDS011;8717;53.588;10.176;2023-09-07T04:23:31;7.10;;;6.40;;
17201;SDS011;8717;53.588;10.176;2023-09-07T04:26:03;7.53;;;6.47;;
17201;SDS011;8717;53.588;10.176;2023-09-07T04:28:33;8.60;;;6.50;;
17201;SDS011;8717;53.588;10.176;2023-09-07T04:31:00;9.47;;;7.07;;
17201;SDS011;8717;53.588;10.176;2023-09-07T04:33:29;6.57;;;5.97;;
17201;SDS011;8717;53.588;10.176;2023-09-07T04:35:56;7.65;;;6.80;;
17201;SDS011;8717;53.588;10.176;2023-09-07T04:38:23;7.50;;;6.73;;
17201;SDS011;8717;53.588;10.176;2023-09-07T04:40:49;8.13;;;6.00;;
17201;SDS011;8717;53.588;10.176;2023-09-07T04:43:16;7.33;;;6.70;;
17201;SDS011;8717;53.588;10.176;2023-09-07T04:45:46;7.87;;;7.07;;
17201;SDS011;8717;53.588;10.176;2023-09-07T04:48:13;7.20;;;6.50;;
17201;SDS011;8717;53.588;10.176;2023-09-07T04:50:40;8.50;;;6.90;;
17201;SDS011;8717;53.588;10.176;2023-09-07T04:53:07;7.28;;;6.63;;
17201;SDS011;8717;53.588;10.176;2023-09-07T04:55:36;7.03;;;6.30;;
17201;SDS011;8717;53.588;10.176;2023-09-07T04:58:03;8.43;;;6.95;;
17201;SDS011;8717;53.588;10.176;2023-09-07T05:00:30;6.90;;;6.28;;
17201;SDS011;8717;53.588;10.176;2023-09-07T05:02:58;7.25;;;6.47;;
17201;SDS011;8717;53.588;10.176;2023-09-07T05:05:25;7.50;;;6.80;;
17201;SDS011;8717;53.588;10.176;2023-09-07T05:07:52;9.23;;;6.95;;
17201;SDS011;8717;53.588;10.176;2023-09-07T05:10:19;8.02;;;6.85;;
17201;SDS011;8717;53.588;10.176;2023-09-07T05:12:46;7.38;;;6.60;;
17201;SDS011;8717;53.588;10.176;2023-09-07T05:15:13;9.60;;;7.28;;
17201;SDS011;8717;53.588;10.176;2023-09-07T05:17:41;7.50;;;6.78;;
17201;SDS011;8717;53.588;10.176;2023-09-07T05:20:09;7.70;;;6.40;;
17201;SDS011;8717;53.588;10.176;2023-09-07T05:22:37;7.57;;;6.88;;
17201;SDS011;8717;53.588;10.176;2023-09-07T05:25:06;9.02;;;6.80;;
17201;SDS011;8717;53.588;10.176;2023-09-07T05:27:34;7.10;;;6.35;;
17201;SDS011;8717;53.588;10.176;2023-09-07T05:30:02;8.73;;;7.13;;
17201;SDS011;8717;53.588;10.176;2023-09-07T05:32:29;7.38;;;6.63;;
17201;SDS011;8717;53.588;10.176;2023-09-07T05:34:56;7.57;;;6.85;;
17201;SDS011;8717;53.588;10.176;2023-09-07T05:37:25;7.53;;;6.43;;
17201;SDS011;8717;53.588;10.176;2023-09-07T05:39:51;7.68;;;6.97;;
17201;SDS011;8717;53.588;10.176;2023-09-07T05:42:18;7.25;;;6.47;;
17201;SDS011;8717;53.588;10.176;2023-09-07T05:44:45;7.50;;;6.40;;
17201;SDS011;8717;53.588;10.176;2023-09-07T05:47:12;8.48;;;6.75;;
17201;SDS011;8717;53.588;10.176;2023-09-07T05:49:39;9.80;;;6.30;;
17201;SDS011;8717;53.588;10.176;2023-09-07T05:52:06;7.22;;;6.53;;
17201;SDS011;8717;53.588;10.176;2023-09-07T05:54:35;7.25;;;6.50;;
17201;SDS011;8717;53.588;10.176;2023-09-07T05:57:02;6.95;;;6.25;;
17201;SDS011;8717;53.588;10.176;2023-09-07T05:59:29;9.65;;;6.72;;
17201;SDS011;8717;53.588;10.176;2023-09-07T06:01:55;7.60;;;6.80;;
17201;SDS011;8717;53.588;10.176;2023-09-07T06:04:22;6.78;;;6.10;;
17201;SDS011;8717;53.588;10.176;2023-09-07T06:06:49;6.63;;;6.03;;
17201;SDS011;8717;53.588;10.176;2023-09-07T06:09:16;8.07;;;6.68;;
17201;SDS011;8717;53.588;10.176;2023-09-07T06:11:44;7.65;;;6.50;;
17201;SDS011;8717;53.588;10.176;2023-09-07T06:14:11;9.70;;;6.63;;
17201;SDS011;8717;53.588;10.176;2023-09-07T06:16:38;7.05;;;6.35;;
17201;SDS011;8717;53.588;10.176;2023-09-07T06:19:05;6.72;;;6.13;;
17201;SDS011;8717;53.588;10.176;2023-09-07T06:21:33;7.10;;;5.75;;
17201;SDS011;8717;53.588;10.176;2023-09-07T06:23:59;6.93;;;6.32;;
17201;SDS011;8717;53.588;10.176;2023-09-07T06:26:26;7.47;;;6.68;;
17201;SDS011;8717;53.588;10.176;2023-09-07T06:28:54;7.78;;;6.43;;
17201;SDS011;8717;53.588;10.176;2023-09-07T06:31:21;6.38;;;5.78;;
17201;SDS011;8717;53.588;10.176;2023-09-07T06:33:48;7.13;;;6.30;;
17201;SDS011;8717;53.588;10.176;2023-09-07T06:36:14;6.60;;;6.00;;
17201;SDS011;8717;53.588;10.176;2023-09-07T06:38:41;6.72;;;6.03;;
17201;SDS011;8717;53.588;10.176;2023-09-07T06:41:08;6.90;;;6.15;;
17201;SDS011;8717;53.588;10.176;2023-09-07T06:43:36;6.93;;;6.22;;
17201;SDS011;8717;53.588;10.176;2023-09-07T06:46:06;6.82;;;5.95;;
17201;SDS011;8717;53.588;10.176;2023-09-07T06:48:34;7.05;;;6.10;;
17201;SDS011;8717;53.588;10.176;2023-09-07T06:51:01;7.07;;;6.40;;
17201;SDS011;8717;53.588;10.176;2023-09-07T06:53:30;8.75;;;6.95;;
17201;SDS011;8717;53.588;10.176;2023-09-07T06:55:57;9.27;;;6.20;;
17201;SDS011;8717;53.588;10.176;2023-09-07T06:58:24;7.45;;;6.68;;
17201;SDS011;8717;53.588;10.176;2023-09-07T07:00:50;7.93;;;6.25;;
17201;SDS011;8717;53.588;10.176;2023-09-07T07:03:19;7.13;;;6.43;;
17201;SDS011;8717;53.588;10.176;2023-09-07T07:05:45;6.82;;;6.13;;
17201;SDS011;8717;53.588;10.176;2023-09-07T07:08:12;6.35;;;5.63;;
17201;SDS011;8717;53.588;10.176;2023-09-07T07:10:39;6.93;;;5.57;;
17201;SDS011;8717;53.588;10.176;2023-09-07T07:13:05;7.03;;;6.13;;
17201;SDS011;8717;53.588;10.176;2023-09-07T07:15:32;7.63;;;5.55;;
17201;SDS011;8717;53.588;10.176;2023-09-07T07:18:00;7.03;;;5.90;;
17201;SDS011;8717;53.588;10.176;2023-09-07T07:20:34;6.53;;;5.85;;
17201;SDS011;8717;53.588;10.176;2023-09-07T07:23:03;5.90;;;5.40;;
17201;SDS011;8717;53.588;10.176;2023-09-07T07:25:32;7.07;;;6.38;;
17201;SDS011;8717;53.588;10.176;2023-09-07T07:27:59;6.85;;;6.15;;
17201;SDS011;8717;53.588;10.176;2023-09-07T07:30:29;5.90;;;5.40;;
17201;SDS011;8717;53.588;10.176;2023-09-07T07:32:56;6.30;;;5.70;;
17201;SDS011;8717;53.588;10.176;2023-09-07T07:35:23;7.32;;;5.80;;
17201;SDS011;8717;53.588;10.176;2023-09-07T07:37:52;6.63;;;5.40;;
17201;SDS011;8717;53.588;10.176;2023-09-07T07:40:19;6.13;;;5.53;;
17201;SDS011;8717;53.588;10.176;2023-09-07T07:42:46;7.15;;;6.03;;
17201;SDS011;8717;53.588;10.176;2023-09-07T07:45:13;6.28;;;5.60;;
17201;SDS011;8717;53.588;10.176;2023-09-07T07:47:45;6.47;;;5.78;;
17201;SDS011;8717;53.588;10.176;2023-09-07T07:50:11;6.75;;;5.53;;
17201;SDS011;8717;53.588;10.176;2023-09-07T07:52:38;7.97;;;5.20;;
17201;SDS011;8717;53.588;10.176;2023-09-07T07:55:07;5.93;;;5.20;;
17201;SDS011;8717;53.588;10.176;2023-09-07T07:57:35;7.57;;;5.70;;
17201;SDS011;8717;53.588;10.176;2023-09-07T08:00:03;6.35;;;5.57;;
17201;SDS011;8717;53.588;10.176;2023-09-07T08:02:39;5.00;;;4.53;;
17201;SDS011;8717;53.588;10.176;2023-09-07T08:05:08;5.07;;;4.57;;
17201;SDS011;8717;53.588;10.176;2023-09-07T08:07:36;5.22;;;4.60;;
17201;SDS011;8717;53.588;10.176;2023-09-07T08:10:04;5.20;;;4.70;;
17201;SDS011;8717;53.588;10.176;2023-09-07T08:12:33;4.68;;;4.13;;
17201;SDS011;8717;53.588;10.176;2023-09-07T08:15:00;5.50;;;3.83;;
17201;SDS011;8717;53.588;10.176;2023-09-07T08:17:27;5.43;;;3.65;;
17201;SDS011;8717;53.588;10.176;2023-09-07T08:19:53;5.30;;;4.80;;
17201;SDS011;8717;53.588;10.176;2023-09-07T08:22:23;5.47;;;4.75;;
17201;SDS011;8717;53.588;10.176;2023-09-07T08:24:49;6.63;;;4.05;;
17201;SDS011;8717;53.588;10.176;2023-09-07T08:27:17;7.07;;;4.18;;
17201;SDS011;8717;53.588;10.176;2023-09-07T08:29:50;4.88;;;3.60;;
17201;SDS011;8717;53.588;10.176;2023-09-07T08:32:18;4.10;;;3.70;;
17201;SDS011;8717;53.588;10.176;2023-09-07T08:34:46;4.68;;;4.20;;
17201;SDS011;8717;53.588;10.176;2023-09-07T08:37:13;4.68;;;4.20;;
17201;SDS011;8717;53.588;10.176;2023-09-07T08:39:39;6.22;;;4.00;;
17201;SDS011;8717;53.588;10.176;2023-09-07T08:42:06;5.00;;;3.90;;
17201;SDS011;8717;53.588;10.176;2023-09-07T08:44:34;4.63;;;4.15;;
17201;SDS011;8717;53.588;10.176;2023-09-07T08:47:05;4.30;;;3.90;;
17201;SDS011;8717;53.588;10.176;2023-09-07T08:49:32;4.13;;;3.53;;
17201;SDS011;8717;53.588;10.176;2023-09-07T08:51:59;4.97;;;4.03;;
17201;SDS011;8717;53.588;10.176;2023-09-07T08:54:29;6.65;;;4.03;;
17201;SDS011;8717;53.588;10.176;2023-09-07T08:56:57;5.10;;;4.10;;
17201;SDS011;8717;53.588;10.176;2023-09-07T08:59:25;3.88;;;3.58;;
17201;SDS011;8717;53.588;10.176;2023-09-07T09:01:55;4.95;;;3.72;;
17201;SDS011;8717;53.588;10.176;2023-09-07T09:04:24;4.53;;;3.92;;
17201;SDS011;8717;53.588;10.176;2023-09-07T09:06:52;4.55;;;3.88;;
17201;SDS011;8717;53.588;10.176;2023-09-07T09:09:22;5.65;;;4.05;;
17201;SDS011;8717;53.588;10.176;2023-09-07T09:11:50;4.60;;;4.20;;
17201;SDS011;8717;53.588;10.176;2023-09-07T09:14:17;4.95;;;3.95;;
17201;SDS011;8717;53.588;10.176;2023-09-07T09:16:48;4.30;;;3.90;;
17201;SDS011;8717;53.588;10.176;2023-09-07T09:19:15;4.70;;;3.75;;
17201;SDS011;8717;53.588;10.176;2023-09-07T09:21:44;4.22;;;3.83;;
17201;SDS011;8717;53.588;10.176;2023-09-07T09:24:11;4.20;;;3.88;;
17201;SDS011;8717;53.588;10.176;2023-09-07T09:26:39;5.40;;;3.88;;
17201;SDS011;8717;53.588;10.176;2023-09-07T09:29:06;5.63;;;3.60;;
17201;SDS011;8717;53.588;10.176;2023-09-07T09:31:34;5.55;;;3.92;;
17201;SDS011;8717;53.588;10.176;2023-09-07T09:34:02;6.05;;;3.58;;
17201;SDS011;8717;53.588;10.176;2023-09-07T09:36:32;4.30;;;3.80;;
17201;SDS011;8717;53.588;10.176;2023-09-07T09:39:01;5.63;;;4.07;;
17201;SDS011;8717;53.588;10.176;2023-09-07T09:41:30;4.32;;;3.60;;
17201;SDS011;8717;53.588;10.176;2023-09-07T09:43:58;4.43;;;3.88;;
17201;SDS011;8717;53.588;10.176;2023-09-07T09:46:27;3.92;;;3.58;;
17201;SDS011;8717;53.588;10.176;2023-09-07T09:48:54;4.75;;;4.00;;
17201;SDS011;8717;53.588;10.176;2023-09-07T09:51:23;4.70;;;3.70;;
17201;SDS011;8717;53.588;10.176;2023-09-07T09:53:51;4.82;;;3.28;;
17201;SDS011;8717;53.588;10.176;2023-09-07T09:56:21;5.15;;;3.42;;
17201;SDS011;8717;53.588;10.176;2023-09-07T09:58:48;4.03;;;3.60;;
17201;SDS011;8717;53.588;10.176;2023-09-07T10:01:14;8.27;;;3.72;;
17201;SDS011;8717;53.588;10.176;2023-09-07T10:03:42;3.83;;;3.47;;
17201;SDS011;8717;53.588;10.176;2023-09-07T10:06:11;4.75;;;3.60;;
17201;SDS011;8717;53.588;10.176;2023-09-07T10:08:50;4.22;;;3.22;;
17201;SDS011;8717;53.588;10.176;2023-09-07T10:11:28;3.78;;;3.05;;
17201;SDS011;8717;53.588;10.176;2023-09-07T10:13:57;4.07;;;3.50;;
17201;SDS011;8717;53.588;10.176;2023-09-07T10:16:24;3.65;;;2.90;;
17201;SDS011;8717;53.588;10.176;2023-09-07T10:18:52;3.65;;;3.25;;
17201;SDS011;8717;53.588;10.176;2023-09-07T10:21:19;3.47;;;3.17;;
17201;SDS011;8717;53.588;10.176;2023-09-07T10:23:50;7.47;;;3.78;;
17201;SDS011;8717;53.588;10.176;2023-09-07T10:26:18;3.38;;;3.08;;
17201;SDS011;8717;53.588;10.176;2023-09-07T10:28:58;4.88;;;3.75;;
17201;SDS011;8717;53.588;10.176;2023-09-07T10:31:25;5.85;;;4.03;;
17201;SDS011;8717;53.588;10.176;2023-09-07T10:33:52;14.50;;;4.30;;
17201;SDS011;8717;53.588;10.176;2023-09-07T10:36:20;6.20;;;3.75;;
17201;SDS011;8717;53.588;10.176;2023-09-07T10:38:47;10.43;;;4.80;;
17201;SDS011;8717;53.588;10.176;2023-09-07T10:41:14;4.65;;;3.63;;
17201;SDS011;8717;53.588;10.176;2023-09-07T10:43:47;4.10;;;3.13;;
17201;SDS011;8717;53.588;10.176;2023-09-07T10:46:15;6.53;;;3.75;;
17201;SDS011;8717;53.588;10.176;2023-09-07T10:48:44;6.15;;;3.60;;
17201;SDS011;8717;53.588;10.176;2023-09-07T10:51:11;8.20;;;4.63;;
17201;SDS011;8717;53.588;10.176;2023-09-07T10:53:39;4.47;;;3.28;;
17201;SDS011;8717;53.588;10.176;2023-09-07T10:56:06;5.13;;;3.13;;
17201;SDS011;8717;53.588;10.176;2023-09-07T10:58:33;4.30;;;3.63;;
17201;SDS011;8717;53.588;10.176;2023-09-07T11:01:04;4.22;;;3.30;;
17201;SDS011;8717;53.588;10.176;2023-09-07T11:03:32;3.67;;;2.90;;
17201;SDS011;8717;53.588;10.176;2023-09-07T11:06:02;4.00;;;3.17;;
17201;SDS011;8717;53.588;10.176;2023-09-07T11:08:32;4.10;;;3.15;;
17201;SDS011;8717;53.588;10.176;2023-09-07T11:10:59;3.50;;;2.90;;
17201;SDS011;8717;53.588;10.176;2023-09-07T11:13:26;3.33;;;2.45;;
17201;SDS011;8717;53.588;10.176;2023-09-07T11:15:53;3.72;;;2.97;;
17201;SDS011;8717;53.588;10.176;2023-09-07T11:18:22;3.58;;;2.67;;
17201;SDS011;8717;53.588;10.176;2023-09-07T11:20:49;3.50;;;3.10;;
17201;SDS011;8717;53.588;10.176;2023-09-07T11:23:17;3.53;;;2.83;;
17201;SDS011;8717;53.588;10.176;2023-09-07T11:25:46;3.95;;;3.30;;
17201;SDS011;8717;53.588;10.176;2023-09-07T11:28:15;3.15;;;2.72;;
17201;SDS011;8717;53.588;10.176;2023-09-07T11:30:49;6.20;;;3.10;;
17201;SDS011;8717;53.588;10.176;2023-09-07T11:33:17;6.68;;;2.97;;
17201;SDS011;8717;53.588;10.176;2023-09-07T11:35:45;6.40;;;2.90;;
17201;SDS011;8717;53.588;10.176;2023-09-07T11:38:12;3.30;;;3.00;;
17201;SDS011;8717;53.588;10.176;2023-09-07T11:40:41;3.20;;;2.83;;
17201;SDS011;8717;53.588;10.176;2023-09-07T11:43:09;2.83;;;2.47;;
17201;SDS011;8717;53.588;10.176;2023-09-07T11:45:36;3.72;;;3.42;;
17201;SDS011;8717;53.588;10.176;2023-09-07T11:48:03;3.30;;;3.00;;
17201;SDS011;8717;53.588;10.176;2023-09-07T11:50:30;4.03;;;3.05;;
17201;SDS011;8717;53.588;10.176;2023-09-07T11:52:58;5.43;;;3.50;;
17201;SDS011;8717;53.588;10.176;2023-09-07T11:55:25;6.10;;;3.10;;
17201;SDS011;8717;53.588;10.176;2023-09-07T11:57:51;4.30;;;3.70;;
17201;SDS011;8717;53.588;10.176;2023-09-07T12:00:18;4.05;;;3.65;;
17201;SDS011;8717;53.588;10.176;2023-09-07T12:02:46;4.85;;;3.53;;
17201;SDS011;8717;53.588;10.176;2023-09-07T12:05:13;4.50;;;3.53;;
17201;SDS011;8717;53.588;10.176;2023-09-07T12:07:40;6.05;;;3.65;;
17201;SDS011;8717;53.588;10.176;2023-09-07T12:10:09;4.00;;;3.58;;
17201;SDS011;8717;53.588;10.176;2023-09-07T12:12:38;3.85;;;3.10;;
17201;SDS011;8717;53.588;10.176;2023-09-07T12:15:06;6.25;;;3.53;;
17201;SDS011;8717;53.588;10.176;2023-09-07T12:17:34;3.90;;;3.50;;
17201;SDS011;8717;53.588;10.176;2023-09-07T12:20:01;5.60;;;3.65;;
17201;SDS011;8717;53.588;10.176;2023-09-07T12:22:28;6.88;;;3.30;;
17201;SDS011;8717;53.588;10.176;2023-09-07T12:24:55;4.80;;;3.35;;
17201;SDS011;8717;53.588;10.176;2023-09-07T12:27:23;9.07;;;3.80;;
17201;SDS011;8717;53.588;10.176;2023-09-07T12:29:50;5.00;;;3.15;;
17201;SDS011;8717;53.588;10.176;2023-09-07T12:32:16;9.85;;;4.30;;
17201;SDS011;8717;53.588;10.176;2023-09-07T12:34:43;3.88;;;3.45;;
17201;SDS011;8717;53.588;10.176;2023-09-07T12:37:10;5.63;;;3.60;;
17201;SDS011;8717;53.588;10.176;2023-09-07T12:39:36;4.10;;;3.70;;
17201;SDS011;8717;53.588;10.176;2023-09-07T12:42:03;4.40;;;3.90;;
17201;SDS011;8717;53.588;10.176;2023-09-07T12:44:31;4.18;;;3.63;;
17201;SDS011;8717;53.588;10.176;2023-09-07T12:46:58;3.10;;;2.80;;
17201;SDS011;8717;53.588;10.176;2023-09-07T12:49:25;6.68;;;3.75;;
17201;SDS011;8717;53.588;10.176;2023-09-07T12:51:52;6.97;;;3.20;;
17201;SDS011;8717;53.588;10.176;2023-09-07T12:54:22;3.50;;;3.17;;
17201;SDS011;8717;53.588;10.176;2023-09-07T12:56:53;5.78;;;3.22;;
17201;SDS011;8717;53.588;10.176;2023-09-07T12:59:19;4.95;;;3.05;;
17201;SDS011;8717;53.588;10.176;2023-09-07T13:01:47;3.13;;;2.88;;
17201;SDS011;8717;53.588;10.176;2023-09-07T13:04:14;3.42;;;2.90;;
17201;SDS011;8717;53.588;10.176;2023-09-07T13:06:40;4.57;;;3.45;;
17201;SDS011;8717;53.588;10.176;2023-09-07T13:09:07;3.97;;;3.10;;
17201;SDS011;8717;53.588;10.176;2023-09-07T13:11:34;3.88;;;3.05;;
17201;SDS011;8717;53.588;10.176;2023-09-07T13:14:01;4.15;;;3.30;;
17201;SDS011;8717;53.588;10.176;2023-09-07T13:16:28;4.82;;;2.75;;
17201;SDS011;8717;53.588;10.176;2023-09-07T13:18:56;5.25;;;3.05;;
17201;SDS011;8717;53.588;10.176;2023-09-07T13:21:22;4.60;;;3.00;;
17201;SDS011;8717;53.588;10.176;2023-09-07T13:23:49;6.15;;;3.42;;
17201;SDS011;8717;53.588;10.176;2023-09-07T13:26:16;3.22;;;2.92;;
17201;SDS011;8717;53.588;10.176;2023-09-07T13:28:42;3.63;;;3.28;;
17201;SDS011;8717;53.588;10.176;2023-09-07T13:31:09;5.07;;;3.15;;
17201;SDS011;8717;53.588;10.176;2023-09-07T13:33:36;4.30;;;3.40;;
17201;SDS011;8717;53.588;10.176;2023-09-07T13:36:04;3.55;;;3.25;;
17201;SDS011;8717;53.588;10.176;2023-09-07T13:38:31;5.00;;;3.58;;
17201;SDS011;8717;53.588;10.176;2023-09-07T13:40:57;3.30;;;3.00;;
17201;SDS011;8717;53.588;10.176;2023-09-07T13:43:24;4.82;;;3.58;;
17201;SDS011;8717;53.588;10.176;2023-09-07T13:45:51;4.70;;;3.47;;
17201;SDS011;8717;53.588;10.176;2023-09-07T13:48:18;4.43;;;3.53;;
17201;SDS011;8717;53.588;10.176;2023-09-07T13:50:44;4.18;;;3.17;;
17201;SDS011;8717;53.588;10.176;2023-09-07T13:53:13;4.28;;;3.20;;
17201;SDS011;8717;53.588;10.176;2023-09-07T13:55:40;3.80;;;3.45;;
17201;SDS011;8717;53.588;10.176;2023-09-07T13:58:07;3.92;;;3.42;;
17201;SDS011;8717;53.588;10.176;2023-09-07T14:00:33;5.20;;;3.20;;
17201;SDS011;8717;53.588;10.176;2023-09-07T14:03:00;6.18;;;3.38;;
17201;SDS011;8717;53.588;10.176;2023-09-07T14:05:28;3.47;;;3.17;;
17201;SDS011;8717;53.588;10.176;2023-09-07T14:07:54;5.15;;;3.20;;
17201;SDS011;8717;53.588;10.176;2023-09-07T14:10:23;3.95;;;3.00;;
17201;SDS011;8717;53.588;10.176;2023-09-07T14:12:50;3.95;;;3.05;;
17201;SDS011;8717;53.588;10.176;2023-09-07T14:15:16;3.75;;;3.35;;
17201;SDS011;8717;53.588;10.176;2023-09-07T14:17:43;3.70;;;3.00;;
17201;SDS011;8717;53.588;10.176;2023-09-07T14:20:10;3.22;;;2.70;;
17201;SDS011;8717;53.588;10.176;2023-09-07T14:22:37;3.65;;;3.03;;
17201;SDS011;8717;53.588;10.176;2023-09-07T14:25:05;5.38;;;3.22;;
17201;SDS011;8717;53.588;10.176;2023-09-07T14:27:34;4.05;;;3.05;;
17201;SDS011;8717;53.588;10.176;2023-09-07T14:30:01;3.65;;;2.65;;
17201;SDS011;8717;53.588;10.176;2023-09-07T14:32:27;5.22;;;3.10;;
17201;SDS011;8717;53.588;10.176;2023-09-07T14:34:54;3.88;;;3.00;;
17201;SDS011;8717;53.588;10.176;2023-09-07T14:37:21;3.78;;;3.20;;
17201;SDS011;8717;53.588;10.176;2023-09-07T14:39:47;3.70;;;3.25;;
17201;SDS011;8717;53.588;10.176;2023-09-07T14:42:15;7.07;;;3.25;;
17201;SDS011;8717;53.588;10.176;2023-09-07T14:44:45;5.50;;;3.05;;
17201;SDS011;8717;53.588;10.176;2023-09-07T14:47:13;4.28;;;3.17;;
17201;SDS011;8717;53.588;10.176;2023-09-07T14:49:40;3.70;;;3.30;;